createdAt,value
2022-10-22T00:00:33.387Z,-23573.00
2022-10-22T00:02:36.047Z,-23570.78
2022-10-22T00:04:38.695Z,-23567.63
2022-10-22T00:06:44.864Z,-23565.88
2022-10-22T00:08:47.490Z,-23563.19
2022-10-22T00:10:50.459Z,-23561.94
2022-10-22T00:12:53.049Z,-23564.28
2022-10-22T00:14:55.697Z,-23565.72
2022-10-22T00:17:00.906Z,-23565.41
2022-10-22T00:19:03.851Z,-23566.97
2022-10-22T00:21:07.650Z,-23566.03
2022-10-22T00:23:11.588Z,-23565.88
2022-10-22T00:25:14.232Z,-23562.09
2022-10-22T00:27:16.869Z,-23562.72
2022-10-22T00:29:20.032Z,-23561.78
2022-10-22T00:31:22.728Z,-23562.25
2022-10-22T00:33:25.573Z,-23562.88
2022-10-22T00:35:28.292Z,-23561.44
2022-10-22T00:37:31.128Z,-23562.25
2022-10-22T00:39:35.094Z,-23562.72
2022-10-22T00:41:37.747Z,-23563.50
2022-10-22T00:43:57.824Z,-23565.88
2022-10-22T00:46:00.401Z,-23563.50
2022-10-22T00:48:06.335Z,-23562.88
2022-10-22T00:50:12.949Z,-23562.41
2022-10-22T00:52:15.441Z,-23563.81
2022-10-22T00:54:18.084Z,-23562.88
2022-10-22T00:56:22.437Z,-23560.97
2022-10-22T00:58:28.165Z,-23561.59
2022-10-22T01:00:31.188Z,-23563.81
2022-10-22T01:02:34.204Z,-23559.72
2022-10-22T01:04:36.827Z,-23560.66
2022-10-22T01:06:39.776Z,-23560.50
2022-10-22T01:08:47.942Z,-23558.44
2022-10-22T01:11:00.946Z,-23561.28
2022-10-22T01:13:18.039Z,-23560.34
2022-10-22T01:15:29.842Z,-23560.34
2022-10-22T01:17:41.993Z,-23557.97
2022-10-22T01:19:59.539Z,-23557.19
2022-10-22T01:22:10.038Z,-23557.81
2022-10-22T01:24:33.688Z,-23557.03
2022-10-22T01:26:51.877Z,-23555.91
2022-10-22T01:29:02.304Z,-23556.22
2022-10-22T01:31:07.041Z,-23555.75
2022-10-22T01:33:14.215Z,-23556.88
2022-10-22T01:35:20.922Z,-23556.06
2022-10-22T01:37:27.760Z,-23557.81
2022-10-22T01:39:32.314Z,-23556.38
2022-10-22T01:41:36.182Z,-23555.91
2022-10-22T01:43:38.786Z,-23555.28
2022-10-22T01:45:44.978Z,-23555.59
2022-10-22T01:47:58.295Z,-23555.28
2022-10-22T01:50:26.579Z,-23556.22
2022-10-22T01:52:41.991Z,-23557.50
2022-10-22T01:54:55.015Z,-23556.38
2022-10-22T01:57:07.877Z,-23556.53
2022-10-22T01:59:19.057Z,-23556.72
2022-10-22T02:01:31.728Z,-23557.66
2022-10-22T02:03:39.691Z,-23559.06
2022-10-22T02:05:46.998Z,-23558.75
2022-10-22T02:07:52.963Z,-23559.06
2022-10-22T02:09:57.184Z,-23559.88
2022-10-22T02:14:15.017Z,-23558.75
2022-10-22T02:16:22.468Z,-23558.13
2022-10-22T02:18:30.918Z,-23559.88
2022-10-22T02:20:36.355Z,-23560.81
2022-10-22T02:22:40.169Z,-23560.03
2022-10-22T02:24:42.932Z,-23558.44
2022-10-22T02:26:53.318Z,-23557.03
2022-10-22T02:29:02.525Z,-23557.03
2022-10-22T02:31:14.216Z,-23557.97
2022-10-22T02:33:21.766Z,-23557.50
2022-10-22T02:35:28.559Z,-23556.72
2022-10-22T02:37:31.961Z,-23557.19
2022-10-22T02:39:36.954Z,-23554.66
2022-10-22T02:41:39.898Z,-23553.38
2022-10-22T02:43:43.752Z,-23553.06
2022-10-22T02:45:47.022Z,-23554.66
2022-10-22T02:47:49.848Z,-23554.03
2022-10-22T02:49:52.442Z,-23553.53
2022-10-22T02:51:56.479Z,-23556.22
2022-10-22T02:53:59.244Z,-23554.34
2022-10-22T02:56:02.063Z,-23555.13
2022-10-22T02:58:04.659Z,-23555.91
2022-10-22T03:00:08.807Z,-23556.88
2022-10-22T03:02:11.458Z,-23559.88
2022-10-22T03:04:14.102Z,-23561.59
2022-10-22T03:06:16.815Z,-23562.25
2022-10-22T03:08:20.809Z,-23560.66
2022-10-22T03:10:23.419Z,-23563.34
2022-10-22T03:12:26.073Z,-23561.28
2022-10-22T03:14:28.670Z,-23561.28
2022-10-22T03:16:31.388Z,-23562.88
2022-10-22T03:18:34.059Z,-23561.94
2022-10-22T03:20:36.782Z,-23564.13
2022-10-22T03:22:41.978Z,-23561.94
2022-10-22T03:24:49.397Z,-23563.03
2022-10-22T03:26:52.863Z,-23560.97
2022-10-22T03:28:55.768Z,-23563.19
2022-10-22T03:30:58.378Z,-23560.97
2022-10-22T03:33:01.104Z,-23559.41
2022-10-22T03:35:03.777Z,-23559.41
2022-10-22T03:37:06.881Z,-23559.06
2022-10-22T03:39:10.234Z,-23558.13
2022-10-22T03:41:14.293Z,-23558.13
2022-10-22T03:43:17.578Z,-23558.75
2022-10-22T03:45:20.210Z,-23563.50
2022-10-22T03:47:24.357Z,-23557.97
2022-10-22T03:49:27.031Z,-23558.13
2022-10-22T03:51:30.344Z,-23556.88
2022-10-22T03:53:32.991Z,-23557.19
2022-10-22T03:55:35.713Z,-23556.38
2022-10-22T03:57:40.103Z,-23555.28
2022-10-22T03:59:44.969Z,-23555.91
2022-10-22T04:01:47.593Z,-23557.19
2022-10-22T04:03:50.249Z,-23554.66
2022-10-22T04:05:52.844Z,-23557.34
2022-10-22T04:07:55.431Z,-23554.03
2022-10-22T04:09:58.230Z,-23554.19
2022-10-22T04:12:02.148Z,-23552.75
2022-10-22T04:14:06.766Z,-23553.06
2022-10-22T04:16:11.110Z,-23551.47
2022-10-22T04:18:13.685Z,-23553.22
2022-10-22T04:20:16.439Z,-23551.16
2022-10-22T04:22:19.026Z,-23551.97
2022-10-22T04:24:21.576Z,-23553.69
2022-10-22T04:26:24.393Z,-23553.38
2022-10-22T04:28:27.285Z,-23554.81
2022-10-22T04:30:31.245Z,-23554.97
2022-10-22T04:32:33.852Z,-23552.44
2022-10-22T04:34:36.456Z,-23555.28
2022-10-22T04:36:39.085Z,-23553.84
2022-10-22T04:38:42.382Z,-23554.97
2022-10-22T04:40:45.005Z,-23554.97
2022-10-22T04:42:47.598Z,-23556.53
2022-10-22T04:44:50.148Z,-23555.44
2022-10-22T04:46:54.096Z,-23556.53
2022-10-22T04:48:56.687Z,-23555.28
2022-10-22T04:51:00.721Z,-23555.44
2022-10-22T04:53:03.312Z,-23558.44
2022-10-22T04:55:06.572Z,-23557.81
2022-10-22T04:57:09.175Z,-23558.91
2022-10-22T04:59:13.536Z,-23560.19
2022-10-22T05:01:18.800Z,-23560.81
2022-10-22T05:03:25.349Z,-23559.22
2022-10-22T05:05:27.952Z,-23557.50
2022-10-22T05:07:30.512Z,-23558.44
2022-10-22T05:09:33.113Z,-23561.59
2022-10-22T05:11:37.986Z,-23560.34
2022-10-22T05:13:40.589Z,-23559.88
2022-10-22T05:15:43.144Z,-23560.66
2022-10-22T05:17:45.757Z,-23559.72
2022-10-22T05:19:49.672Z,-23559.41
2022-10-22T05:21:52.693Z,-23558.13
2022-10-22T05:23:56.682Z,-23558.59
2022-10-22T05:26:02.944Z,-23555.91
2022-10-22T05:28:05.845Z,-23555.44
2022-10-22T05:30:08.959Z,-23553.06
2022-10-22T05:32:11.536Z,-23552.75
2022-10-22T05:34:14.453Z,-23553.69
2022-10-22T05:36:20.628Z,-23554.50
2022-10-22T05:38:24.258Z,-23552.75
2022-10-22T05:40:30.887Z,-23551.81
2022-10-22T05:42:34.562Z,-23551.47
2022-10-22T05:44:37.268Z,-23554.97
2022-10-22T05:46:39.928Z,-23557.50
2022-10-22T05:48:42.645Z,-23558.44
2022-10-22T05:50:46.202Z,-23561.13
2022-10-22T05:52:50.117Z,-23560.66
2022-10-22T05:54:52.685Z,-23561.94
2022-10-22T05:56:55.559Z,-23562.09
2022-10-22T05:58:58.229Z,-23562.09
2022-10-22T06:01:04.969Z,-23562.56
2022-10-22T06:03:07.457Z,-23560.81
2022-10-22T06:05:10.190Z,-23560.19
2022-10-22T06:07:16.473Z,-23560.66
2022-10-22T06:09:23.307Z,-23561.94
2022-10-22T06:11:27.273Z,-23562.56
2022-10-22T06:13:32.716Z,-23561.94
2022-10-22T06:15:36.408Z,-23562.88
2022-10-22T06:17:38.988Z,-23567.63
2022-10-22T06:19:41.936Z,-23561.59
2022-10-22T06:21:44.828Z,-23563.19
2022-10-22T06:23:47.454Z,-23563.50
2022-10-22T06:25:58.744Z,-23562.72
2022-10-22T06:28:01.391Z,-23563.50
2022-10-22T06:30:04.367Z,-23564.78
2022-10-22T06:32:07.238Z,-23566.34
2022-10-22T06:34:13.215Z,-23565.41
2022-10-22T06:36:18.019Z,-23561.94
2022-10-22T06:38:20.689Z,-23562.09
2022-10-22T06:40:24.315Z,-23560.34
2022-10-22T06:42:28.681Z,-23561.44
2022-10-22T06:44:31.292Z,-23560.50
2022-10-22T06:46:33.991Z,-23560.34
2022-10-22T06:48:37.925Z,-23559.56
2022-10-22T06:50:40.568Z,-23560.66
2022-10-22T06:52:43.159Z,-23558.91
2022-10-22T06:54:45.722Z,-23561.44
2022-10-22T06:56:48.556Z,-23560.19
2022-10-22T06:58:54.718Z,-23558.44
2022-10-22T07:01:02.808Z,-23559.88
2022-10-22T07:03:05.556Z,-23561.59
2022-10-22T07:05:09.384Z,-23562.88
2022-10-22T07:07:12.045Z,-23561.28
2022-10-22T07:09:14.765Z,-23563.34
2022-10-22T07:11:19.009Z,-23564.13
2022-10-22T07:13:21.715Z,-23566.34
2022-10-22T07:15:25.921Z,-23571.41
2022-10-22T07:17:28.566Z,-23573.47
2022-10-22T07:19:31.431Z,-23569.84
2022-10-22T07:21:34.092Z,-23570.16
2022-10-22T07:23:36.785Z,-23573.63
2022-10-22T07:25:39.408Z,-23574.88
2022-10-22T07:27:42.294Z,-23577.25
2022-10-22T07:29:45.139Z,-23574.25
2022-10-22T07:31:49.097Z,-23576.78
2022-10-22T07:33:51.696Z,-23576.31
2022-10-22T07:35:59.273Z,-23577.91
2022-10-22T07:38:01.992Z,-23578.38
2022-10-22T07:40:04.921Z,-23577.72
2022-10-22T07:42:07.519Z,-23578.69
2022-10-22T07:44:10.096Z,-23577.09
2022-10-22T07:46:12.985Z,-23579.78
2022-10-22T07:48:17.070Z,-23584.06
2022-10-22T07:50:19.951Z,-23585.00
2022-10-22T07:52:22.549Z,-23581.84
2022-10-22T07:54:25.385Z,-23588.50
2022-10-22T07:56:28.012Z,-23584.84
2022-10-22T07:58:31.031Z,-23586.75
2022-10-22T08:00:33.617Z,-23592.91
2022-10-22T08:02:36.217Z,-23593.22
2022-10-22T08:04:40.305Z,-23593.53
2022-10-22T08:06:45.833Z,-23595.44
2022-10-22T08:08:50.237Z,-23600.81
2022-10-22T08:10:53.997Z,-23599.84
2022-10-22T08:12:56.990Z,-23600.50
2022-10-22T08:15:00.801Z,-23599.53
2022-10-22T08:17:03.416Z,-23599.53
2022-10-22T08:19:06.032Z,-23597.19
2022-10-22T08:21:10.463Z,-23596.53
2022-10-22T08:23:13.043Z,-23598.28
2022-10-22T08:25:16.414Z,-23604.28
2022-10-22T08:27:19.001Z,-23606.97
2022-10-22T08:29:22.780Z,-23608.06
2022-10-22T08:31:25.365Z,-23608.56
2022-10-22T08:33:27.961Z,-23611.22
2022-10-22T08:35:30.553Z,-23609.97
2022-10-22T08:37:34.776Z,-23607.13
2022-10-22T08:39:37.394Z,-23602.69
2022-10-22T08:41:55.389Z,-23605.53
2022-10-22T08:44:18.335Z,-23608.56
2022-10-22T08:46:34.353Z,-23634.91
2022-10-22T08:48:44.249Z,-23675.59
2022-10-22T08:50:49.869Z,-23703.00
2022-10-22T08:52:59.955Z,-23705.06
2022-10-22T08:55:04.137Z,-23714.50
2022-10-22T08:57:22.712Z,-23734.81
2022-10-22T08:59:30.227Z,-23735.13
2022-10-22T09:01:38.937Z,-23713.72
2022-10-22T09:03:48.958Z,-23726.47
2022-10-22T09:06:00.195Z,-23729.78
2022-10-22T09:08:04.874Z,-23737.78
2022-10-22T09:10:10.617Z,-23745.03
2022-10-22T09:12:20.098Z,-23754.94
2022-10-22T09:14:26.091Z,-23757.75
2022-10-22T09:16:37.623Z,-23740.31
2022-10-22T09:18:47.829Z,-23763.75
2022-10-22T09:20:55.626Z,-23759.00
2022-10-22T09:23:11.784Z,-23750.84
2022-10-22T09:25:20.812Z,-23768.28
2022-10-22T09:27:28.154Z,-23808.97
2022-10-22T09:29:34.911Z,-23812.88
2022-10-22T09:31:37.670Z,-23784.78
2022-10-22T09:33:41.912Z,-23762.00
2022-10-22T09:35:51.884Z,-23789.81
2022-10-22T09:37:56.144Z,-23767.03
2022-10-22T09:40:07.200Z,-23767.66
2022-10-22T09:42:11.417Z,-23783.22
2022-10-22T09:44:14.415Z,-23820.09
2022-10-22T09:46:19.168Z,-23800.78
2022-10-22T09:48:26.477Z,-23765.31
2022-10-22T09:50:37.938Z,-23769.53
2022-10-22T09:52:41.449Z,-23765.63
2022-10-22T09:54:44.261Z,-23752.41
2022-10-22T09:56:56.336Z,-23751.00
2022-10-22T09:58:59.184Z,-23726.94
2022-10-22T10:01:02.175Z,-23753.03
2022-10-22T10:03:04.809Z,-23740.78
2022-10-22T10:05:09.165Z,-23747.38
2022-10-22T10:07:17.427Z,-23745.03
2022-10-22T10:09:22.345Z,-23744.56
2022-10-22T10:11:30.385Z,-23737.47
2022-10-22T10:13:47.294Z,-23726.31
2022-10-22T10:15:56.013Z,-23726.31
2022-10-22T10:18:08.990Z,-23720.34
2022-10-22T10:20:28.822Z,-23742.03
2022-10-22T10:22:48.114Z,-23772.69
2022-10-22T10:25:07.769Z,-23745.66
2022-10-22T10:27:16.254Z,-23758.72
2022-10-22T10:29:45.919Z,-23765.94
2022-10-22T10:32:03.759Z,-23752.09
2022-10-22T10:34:18.830Z,-23762.16
2022-10-22T10:36:32.526Z,-23763.75
2022-10-22T10:38:50.196Z,-23759.66
2022-10-22T10:41:00.518Z,-23753.69
2022-10-22T10:43:11.069Z,-23740.78
2022-10-22T10:45:19.046Z,-23758.25
2022-10-22T10:47:34.555Z,-23748.94
2022-10-22T10:49:37.506Z,-23760.13
2022-10-22T10:51:48.532Z,-23744.09
2022-10-22T10:54:08.370Z,-23749.91
2022-10-22T10:56:33.452Z,-23764.38
2022-10-22T10:58:49.064Z,-23758.72
2022-10-22T11:00:58.092Z,-23761.22
2022-10-22T11:03:27.278Z,-23744.72
2022-10-22T11:05:38.805Z,-23752.25
2022-10-22T11:07:46.251Z,-23755.25
2022-10-22T11:09:54.560Z,-23757.13
2022-10-22T11:12:02.545Z,-23754.63
2022-10-22T11:14:12.423Z,-23754.31
2022-10-22T11:16:22.715Z,-23748.66
2022-10-22T11:18:31.532Z,-23755.88
2022-10-22T11:20:44.998Z,-23765.31
2022-10-22T11:23:17.353Z,-23760.13
2022-10-22T11:25:20.515Z,-23754.31
2022-10-22T11:27:29.446Z,-23752.41
2022-10-22T11:29:39.160Z,-23772.84
2022-10-22T11:31:44.397Z,-23766.56
2022-10-22T11:34:05.004Z,-23761.38
2022-10-22T11:36:14.277Z,-23768.13
2022-10-22T11:38:21.261Z,-23778.50
2022-10-22T11:40:34.150Z,-23770.34
2022-10-22T11:42:39.754Z,-23776.00
2022-10-22T11:46:59.835Z,-23777.25
2022-10-22T11:49:05.782Z,-23769.53
2022-10-22T11:51:30.978Z,-23779.59
2022-10-22T11:53:36.473Z,-23772.53
2022-10-22T11:55:48.441Z,-23779.75
2022-10-22T11:57:51.213Z,-23782.44
2022-10-22T11:59:58.469Z,-23779.44
2022-10-22T12:02:02.547Z,-23783.53
2022-10-22T12:04:23.165Z,-23777.88
2022-10-22T12:06:27.581Z,-23789.34
2022-10-22T12:08:31.019Z,-23805.97
2022-10-22T12:10:37.399Z,-23817.44
2022-10-22T12:12:40.938Z,-23785.09
2022-10-22T12:14:54.880Z,-23773.16
2022-10-22T12:16:59.567Z,-23770.81
2022-10-22T12:19:07.845Z,-23784.63
2022-10-22T12:21:14.014Z,-23781.00
2022-10-22T12:23:16.867Z,-23801.09
2022-10-22T12:25:23.830Z,-23798.91
2022-10-22T12:27:28.097Z,-23819.63
2022-10-22T12:29:33.438Z,-23825.59
2022-10-22T12:31:37.851Z,-23835.94
2022-10-22T12:33:40.843Z,-23837.50
2022-10-22T12:35:47.577Z,-23824.31
2022-10-22T12:37:51.623Z,-23813.97
2022-10-22T12:39:54.223Z,-23788.56
2022-10-22T12:41:56.845Z,-23785.41
2022-10-22T12:44:00.550Z,-23779.75
2022-10-22T12:46:03.224Z,-23777.88
2022-10-22T12:48:09.419Z,-23765.78
2022-10-22T12:50:18.709Z,-23775.50
2022-10-22T12:52:25.729Z,-23795.16
2022-10-22T12:54:31.792Z,-23811.94
2022-10-22T12:56:36.972Z,-23812.88
2022-10-22T12:58:42.156Z,-23817.13
2022-10-22T13:00:47.020Z,-23821.66
2022-10-22T13:02:50.245Z,-23827.94
2022-10-22T13:05:16.647Z,-23822.28
2022-10-22T13:07:22.210Z,-23877.91
2022-10-22T13:09:27.742Z,-23874.47
2022-10-22T13:11:33.324Z,-23858.19
2022-10-22T13:13:45.449Z,-23822.59
2022-10-22T13:15:47.905Z,-23817.75
2022-10-22T13:17:50.559Z,-23816.47
2022-10-22T13:20:05.214Z,-23815.38
2022-10-22T13:22:25.246Z,-23803.00
2022-10-22T13:24:30.380Z,-23816.47
2022-10-22T13:26:35.796Z,-23849.72
2022-10-22T13:28:38.442Z,-23853.47
2022-10-22T13:30:53.871Z,-23851.59
2022-10-22T13:32:59.551Z,-23816.97
2022-10-22T13:35:03.712Z,-23804.56
2022-10-22T13:37:09.596Z,-23824.00
2022-10-22T13:39:17.204Z,-23808.03
2022-10-22T13:41:23.781Z,-23794.03
2022-10-22T13:43:26.563Z,-23811.78
2022-10-22T13:45:29.181Z,-23832.47
2022-10-22T13:47:32.776Z,-23832.47
2022-10-22T13:49:35.922Z,-23817.44
2022-10-22T13:51:39.793Z,-23833.44
2022-10-22T13:53:43.648Z,-23820.88
2022-10-22T13:55:46.584Z,-23820.88
2022-10-22T13:57:50.523Z,-23800.47
2022-10-22T13:59:53.140Z,-23798.59
2022-10-22T14:01:56.985Z,-23810.84
2022-10-22T14:04:02.465Z,-23798.13
2022-10-22T14:06:08.671Z,-23797.03
2022-10-22T14:08:13.689Z,-23790.44
2022-10-22T14:10:19.375Z,-23796.88
2022-10-22T14:12:22.377Z,-23800.78
2022-10-22T14:14:26.353Z,-23815.53
2022-10-22T14:16:31.306Z,-23804.72
2022-10-22T14:18:35.129Z,-23806.75
2022-10-22T14:20:41.004Z,-23791.22
2022-10-22T14:22:43.624Z,-23796.88
2022-10-22T14:24:47.249Z,-23792.78
2022-10-22T14:26:50.155Z,-23793.88
2022-10-22T14:31:17.093Z,-23798.28
2022-10-22T14:33:27.289Z,-23797.66
2022-10-22T14:35:34.381Z,-23789.19
2022-10-22T14:37:36.968Z,-23790.91
2022-10-22T14:39:39.551Z,-23794.53
2022-10-22T14:41:43.307Z,-23785.41
2022-10-22T14:43:45.907Z,-23781.66
2022-10-22T14:45:48.904Z,-23783.38
2022-10-22T14:47:54.848Z,-23785.72
2022-10-22T14:49:57.432Z,-23780.69
2022-10-22T14:52:00.050Z,-23779.28
2022-10-22T14:54:02.629Z,-23779.91
2022-10-22T14:56:05.448Z,-23775.34
2022-10-22T14:58:08.308Z,-23780.53
2022-10-22T15:00:18.874Z,-23774.72
2022-10-22T15:02:22.317Z,-23774.41
2022-10-22T15:04:28.082Z,-23770.34
2022-10-22T15:06:30.683Z,-23767.81
2022-10-22T15:08:34.002Z,-23765.47
2022-10-22T15:10:36.756Z,-23765.78
2022-10-22T15:12:39.388Z,-23766.09
2022-10-22T15:14:42.003Z,-23763.09
2022-10-22T15:16:44.641Z,-23761.22
2022-10-22T15:18:47.246Z,-23761.69
2022-10-22T15:20:58.126Z,-23759.00
2022-10-22T15:23:00.729Z,-23760.13
2022-10-22T15:25:05.008Z,-23757.28
2022-10-22T15:27:08.030Z,-23756.34
2022-10-22T15:29:10.645Z,-23754.31
2022-10-22T15:31:15.223Z,-23753.38
2022-10-22T15:33:18.083Z,-23752.41
2022-10-22T15:35:20.704Z,-23751.94
2022-10-22T15:37:24.720Z,-23749.91
2022-10-22T15:39:27.603Z,-23742.66
2022-10-22T15:41:30.192Z,-23745.81
2022-10-22T15:43:32.870Z,-23745.50
2022-10-22T15:45:35.806Z,-23739.22
2022-10-22T15:47:38.519Z,-23743.13
2022-10-22T15:49:42.214Z,-23739.22
2022-10-22T15:51:44.979Z,-23738.91
2022-10-22T15:53:52.607Z,-23738.41
2022-10-22T15:55:55.601Z,-23739.84
2022-10-22T15:58:00.636Z,-23734.19
2022-10-22T16:00:07.415Z,-23730.41
2022-10-22T16:02:11.231Z,-23728.66
2022-10-22T16:04:14.246Z,-23723.16
2022-10-22T16:06:16.834Z,-23721.44
2022-10-22T16:08:19.891Z,-23721.91
2022-10-22T16:10:24.381Z,-23722.53
2022-10-22T16:12:27.034Z,-23720.34
2022-10-22T16:14:29.687Z,-23720.66
2022-10-22T16:16:35.121Z,-23705.53
2022-10-22T16:18:37.709Z,-23705.53
2022-10-22T16:20:41.554Z,-23698.91
2022-10-22T16:22:44.272Z,-23692.94
2022-10-22T16:24:46.956Z,-23689.78
2022-10-22T16:26:52.548Z,-23687.56
2022-10-22T16:28:55.196Z,-23683.31
2022-10-22T16:30:57.866Z,-23682.84
2022-10-22T16:33:03.305Z,-23679.69
2022-10-22T16:35:08.321Z,-23675.91
2022-10-22T16:37:11.072Z,-23669.28
2022-10-22T16:39:13.883Z,-23669.63
2022-10-22T16:41:19.115Z,-23668.81
2022-10-22T16:43:23.123Z,-23665.81
2022-10-22T16:45:25.937Z,-23663.31
2022-10-22T16:47:29.976Z,-23669.28
2022-10-22T16:49:32.707Z,-23670.88
2022-10-22T16:51:36.516Z,-23669.28
2022-10-22T16:53:39.498Z,-23678.44
2022-10-22T16:55:42.347Z,-23674.34
2022-10-22T16:57:45.112Z,-23672.13
2022-10-22T16:59:49.816Z,-23670.56
2022-10-22T17:01:52.589Z,-23666.47
2022-10-22T17:03:55.613Z,-23665.19
2022-10-22T17:05:59.479Z,-23666.16
2022-10-22T17:08:02.119Z,-23659.53
2022-10-22T17:10:06.087Z,-23666.16
2022-10-22T17:12:08.760Z,-23661.09
2022-10-22T17:14:11.577Z,-23655.09
2022-10-22T17:16:17.484Z,-23657.31
2022-10-22T17:18:20.363Z,-23657.94
2022-10-22T17:20:23.699Z,-23656.06
2022-10-22T17:22:27.238Z,-23654.31
2022-10-22T17:24:29.851Z,-23653.84
2022-10-22T17:26:33.220Z,-23653.84
2022-10-22T17:28:37.211Z,-23655.75
2022-10-22T17:30:41.052Z,-23659.22
2022-10-22T17:32:45.767Z,-23660.31
2022-10-22T17:34:48.545Z,-23654.31
2022-10-22T17:36:51.741Z,-23649.59
2022-10-22T17:38:56.248Z,-23643.91
2022-10-22T17:41:04.409Z,-23642.16
2022-10-22T17:43:09.237Z,-23641.53
2022-10-22T17:45:12.788Z,-23646.13
2022-10-22T17:47:16.026Z,-23644.38
2022-10-22T17:49:21.380Z,-23645.16
2022-10-22T17:51:25.405Z,-23645.66
2022-10-22T17:53:28.283Z,-23653.69
2022-10-22T17:55:31.076Z,-23645.66
2022-10-22T17:57:33.738Z,-23642.16
2022-10-22T17:59:37.060Z,-23643.13
2022-10-22T18:01:45.049Z,-23642.16
2022-10-22T18:03:47.816Z,-23641.69
2022-10-22T18:05:51.725Z,-23639.50
2022-10-22T18:07:56.066Z,-23636.81
2022-10-22T18:09:58.836Z,-23633.34
2022-10-22T18:12:01.784Z,-23633.34
2022-10-22T18:14:05.534Z,-23629.06
2022-10-22T18:16:08.370Z,-23631.75
2022-10-22T18:18:11.340Z,-23628.91
2022-10-22T18:20:14.088Z,-23623.56
2022-10-22T18:22:18.353Z,-23622.91
2022-10-22T18:24:21.058Z,-23621.97
2022-10-22T18:26:26.689Z,-23622.44
2022-10-22T18:28:31.026Z,-23630.81
2022-10-22T18:30:33.657Z,-23632.69
2022-10-22T18:32:36.281Z,-23630.03
2022-10-22T18:34:38.940Z,-23624.34
2022-10-22T18:36:42.304Z,-23622.28
2022-10-22T18:38:50.118Z,-23621.34
2022-10-22T18:40:52.702Z,-23621.97
2022-10-22T18:42:55.274Z,-23621.97
2022-10-22T18:44:57.935Z,-23617.88
2022-10-22T18:47:01.046Z,-23621.97
2022-10-22T18:49:03.687Z,-23625.44
2022-10-22T18:51:08.632Z,-23623.88
2022-10-22T18:53:16.016Z,-23622.44
2022-10-22T18:55:20.097Z,-23623.56
2022-10-22T18:57:22.698Z,-23620.56
2022-10-22T18:59:27.119Z,-23624.81
2022-10-22T19:01:30.404Z,-23621.34
2022-10-22T19:03:33.080Z,-23618.19
2022-10-22T19:05:35.704Z,-23617.88
2022-10-22T19:07:38.486Z,-23614.06
2022-10-22T19:09:43.376Z,-23612.50
2022-10-22T19:11:47.419Z,-23610.59
2022-10-22T19:13:50.172Z,-23606.03
2022-10-22T19:15:53.180Z,-23607.13
2022-10-22T19:17:55.805Z,-23609.97
2022-10-22T19:19:58.402Z,-23610.59
2022-10-22T19:22:00.986Z,-23611.38
2022-10-22T19:24:03.697Z,-23607.28
2022-10-22T19:26:09.965Z,-23607.91
2022-10-22T19:28:13.910Z,-23611.22
2022-10-22T19:30:17.341Z,-23603.03
2022-10-22T19:32:20.149Z,-23601.91
2022-10-22T19:34:22.956Z,-23601.13
2022-10-22T19:36:27.593Z,-23599.06
2022-10-22T19:38:30.290Z,-23596.69
2022-10-22T19:40:32.870Z,-23595.44
2022-10-22T19:42:36.901Z,-23597.97
2022-10-22T19:44:40.948Z,-23594.66
2022-10-22T19:46:43.598Z,-23592.28
2022-10-22T19:48:46.847Z,-23591.34
2022-10-22T19:50:49.568Z,-23589.13
2022-10-22T19:52:52.223Z,-23587.38
2022-10-22T19:54:54.833Z,-23586.28
2022-10-22T19:56:57.521Z,-23587.22
2022-10-22T19:59:00.586Z,-23584.38
2022-10-22T20:01:08.693Z,-23586.91
2022-10-22T20:03:14.092Z,-23586.13
2022-10-22T20:05:16.869Z,-23588.50
2022-10-22T20:07:19.503Z,-23585.66
2022-10-22T20:09:22.157Z,-23587.84
2022-10-22T20:11:27.344Z,-23591.97
2022-10-22T20:13:30.039Z,-23593.69
2022-10-22T20:15:33.275Z,-23592.91
2022-10-22T20:17:37.255Z,-23590.06
2022-10-22T20:19:39.843Z,-23590.06
2022-10-22T20:21:43.056Z,-23587.84
2022-10-22T20:23:46.746Z,-23587.53
2022-10-22T20:25:49.570Z,-23587.69
2022-10-22T20:27:52.168Z,-23585.97
2022-10-22T20:29:54.841Z,-23588.63
2022-10-22T20:31:57.485Z,-23584.06
2022-10-22T20:34:02.214Z,-23581.84
2022-10-22T20:36:07.189Z,-23580.44
2022-10-22T20:38:14.489Z,-23583.44
2022-10-22T20:40:17.240Z,-23582.31
2022-10-22T20:42:19.845Z,-23585.81
2022-10-22T20:44:22.435Z,-23589.75
2022-10-22T20:46:26.728Z,-23594.81
2022-10-22T20:48:31.287Z,-23594.03
2022-10-22T20:50:35.295Z,-23594.34
2022-10-22T20:52:37.909Z,-23592.91
2022-10-22T20:54:42.453Z,-23593.22
2022-10-22T20:56:45.131Z,-23593.53
2022-10-22T20:58:48.895Z,-23591.66
2022-10-22T21:00:52.212Z,-23594.50
2022-10-22T21:02:54.852Z,-23593.53
2022-10-22T21:04:57.416Z,-23592.91
2022-10-22T21:07:01.408Z,-23585.66
2022-10-22T21:09:04.378Z,-23585.66
2022-10-22T21:11:07.149Z,-23583.28
2022-10-22T21:13:10.589Z,-23582.97
2022-10-22T21:15:13.741Z,-23579.47
2022-10-22T21:17:16.409Z,-23576.31
2022-10-22T21:19:22.410Z,-23579.00
2022-10-22T21:21:25.072Z,-23584.06
2022-10-22T21:23:29.092Z,-23581.53
2022-10-22T21:25:31.698Z,-23578.84
2022-10-22T21:27:34.933Z,-23575.22
2022-10-22T21:29:37.533Z,-23577.72
2022-10-22T21:31:40.451Z,-23577.09
2022-10-22T21:33:43.124Z,-23576.31
2022-10-22T21:35:51.967Z,-23575.84
2022-10-22T21:37:54.612Z,-23572.84
2022-10-22T21:39:58.530Z,-23574.09
2022-10-22T21:42:01.132Z,-23572.69
2022-10-22T21:44:03.866Z,-23573.31
2022-10-22T21:46:08.581Z,-23571.56
2022-10-22T21:48:12.968Z,-23572.03
2022-10-22T21:50:15.554Z,-23572.34
2022-10-22T21:52:18.177Z,-23569.50
2022-10-22T21:54:20.771Z,-23566.66
2022-10-22T21:56:27.468Z,-23565.09
2022-10-22T21:58:29.893Z,-23567.94
2022-10-22T22:00:32.564Z,-23567.31
2022-10-22T22:02:35.368Z,-23567.94
2022-10-22T22:04:37.979Z,-23570.00
2022-10-22T22:06:40.585Z,-23566.03
2022-10-22T22:08:42.436Z,-23569.50
2022-10-22T22:10:45.049Z,-23568.41
2022-10-22T22:12:49.014Z,-23567.16
2022-10-22T22:14:51.586Z,-23568.41
2022-10-22T22:16:54.160Z,-23570.00
2022-10-22T22:18:57.668Z,-23569.50
2022-10-22T22:21:00.812Z,-23576.00
2022-10-22T22:23:03.433Z,-23581.84
2022-10-22T22:25:06.351Z,-23578.69
2022-10-22T22:27:09.007Z,-23584.69
2022-10-22T22:29:12.988Z,-23586.75
2022-10-22T22:31:17.201Z,-23586.91
2022-10-22T22:33:19.876Z,-23587.38
2022-10-22T22:35:22.448Z,-23588.50
2022-10-22T22:37:25.059Z,-23589.44
2022-10-22T22:39:27.690Z,-23587.84
2022-10-22T22:41:30.350Z,-23586.59
2022-10-22T22:43:33.150Z,-23587.22
2022-10-22T22:45:37.930Z,-23585.00
2022-10-22T22:47:40.686Z,-23584.22
2022-10-22T22:49:43.476Z,-23582.97
2022-10-22T22:51:46.109Z,-23579.31
2022-10-22T22:53:48.844Z,-23577.09
2022-10-22T22:55:51.442Z,-23576.47
2022-10-22T22:57:54.255Z,-23576.31
2022-10-22T22:59:56.909Z,-23579.63
2022-10-22T23:02:01.039Z,-23579.16
2022-10-22T23:04:05.727Z,-23578.38
2022-10-22T23:06:08.891Z,-23576.00
2022-10-22T23:08:11.483Z,-23574.88
2022-10-22T23:10:14.159Z,-23572.53
2022-10-22T23:12:16.782Z,-23570.31
2022-10-22T23:14:20.327Z,-23567.47
2022-10-22T23:16:25.359Z,-23565.56
2022-10-22T23:18:29.327Z,-23563.19
2022-10-22T23:20:31.948Z,-23564.13
2022-10-22T23:22:34.616Z,-23561.59
2022-10-22T23:24:37.389Z,-23557.81
2022-10-22T23:26:42.168Z,-23555.13
2022-10-22T23:28:44.819Z,-23554.50
2022-10-22T23:30:47.442Z,-23563.81
2022-10-22T23:32:50.116Z,-23566.03
2022-10-22T23:34:54.083Z,-23561.78
2022-10-22T23:36:57.591Z,-23559.06
2022-10-22T23:39:00.207Z,-23556.53
2022-10-22T23:41:03.285Z,-23553.06
2022-10-22T23:43:06.021Z,-23556.22
2022-10-22T23:45:09.328Z,-23555.91
2022-10-22T23:47:11.930Z,-23553.53
2022-10-22T23:49:16.038Z,-23551.47
2022-10-22T23:51:20.711Z,-23552.44
2022-10-22T23:53:23.643Z,-23549.44